createdAt,value
2023-01-27T00:14:05.890Z,5.27
2023-01-27T00:20:14.914Z,5.45
2023-01-27T00:26:05.752Z,5.72
2023-01-27T00:32:44.459Z,5.43
2023-01-27T00:38:45.562Z,5.40
2023-01-27T00:44:38.568Z,5.30
2023-01-27T00:50:27.733Z,5.23
2023-01-27T00:56:36.970Z,5.36
2023-01-27T01:02:44.270Z,5.22
2023-01-27T01:08:32.719Z,5.17
2023-01-27T01:14:19.595Z,5.18
2023-01-27T01:20:07.844Z,5.16
2023-01-27T01:25:56.095Z,5.23
2023-01-27T01:31:43.615Z,5.17
2023-01-27T01:37:30.653Z,5.48
2023-01-27T01:43:18.373Z,5.15
2023-01-27T01:57:22.264Z,5.10
2023-01-27T02:11:48.466Z,5.00
2023-01-27T02:17:47.529Z,5.36
2023-01-27T02:23:44.901Z,5.31
2023-01-27T02:29:31.837Z,5.15
2023-01-27T02:35:30.869Z,5.02
2023-01-27T02:41:17.778Z,5.03
2023-01-27T02:47:05.816Z,5.01
2023-01-27T02:52:55.027Z,5.21
2023-01-27T03:06:47.344Z,5.20
2023-01-27T03:12:37.481Z,5.11
2023-01-27T03:19:07.312Z,5.16
2023-01-27T03:24:57.381Z,5.17
2023-01-27T03:47:05.001Z,4.85
2023-01-27T03:53:03.778Z,4.94
2023-01-27T03:59:07.150Z,4.81
2023-01-27T04:05:19.936Z,4.73
2023-01-27T04:11:31.919Z,4.80
2023-01-27T04:17:30.855Z,4.69
2023-01-27T04:23:22.310Z,4.60
2023-01-27T04:29:26.162Z,4.63
2023-01-27T04:35:38.596Z,4.72
2023-01-27T04:41:54.887Z,4.73
2023-01-27T04:47:48.474Z,4.81
2023-01-27T04:53:47.489Z,4.74
2023-01-27T04:59:37.488Z,4.93
2023-01-27T05:06:09.152Z,5.13
2023-01-27T05:11:57.538Z,4.96
2023-01-27T05:18:17.331Z,4.95
2023-01-27T05:24:38.281Z,4.93
2023-01-27T05:31:01.877Z,4.85
2023-01-27T05:44:49.147Z,4.91
2023-01-27T05:50:37.216Z,4.89
2023-01-27T05:58:07.059Z,5.00
2023-01-27T06:03:54.299Z,4.92
2023-01-27T06:10:19.510Z,4.76
2023-01-27T06:22:37.459Z,5.11
2023-01-27T06:29:25.672Z,5.20
2023-01-27T06:35:48.384Z,5.02
2023-01-27T06:42:06.031Z,4.95
2023-01-27T07:04:29.880Z,5.15
2023-01-27T07:10:27.769Z,5.33
2023-01-27T07:16:57.429Z,5.52
2023-01-27T07:22:44.535Z,5.23
2023-01-27T07:28:31.695Z,5.40
2023-01-27T07:34:18.696Z,5.24
2023-01-27T07:40:06.262Z,5.20
2023-01-27T07:45:54.939Z,5.25
2023-01-27T07:51:57.388Z,5.40
2023-01-27T07:57:44.438Z,5.40
2023-01-27T08:03:38.190Z,5.37
2023-01-27T08:09:25.525Z,5.47
2023-01-27T08:15:12.728Z,5.50
2023-01-27T08:21:05.373Z,5.48
2023-01-27T08:26:59.725Z,5.51
2023-01-27T08:33:22.691Z,5.56
2023-01-27T08:39:21.447Z,5.43
2023-01-27T08:45:19.141Z,5.59
2023-01-27T08:51:07.036Z,5.58
2023-01-27T08:56:55.507Z,5.65
2023-01-27T09:03:04.767Z,5.66
2023-01-27T09:09:12.900Z,5.86
2023-01-27T09:15:32.700Z,5.79
2023-01-27T09:22:50.396Z,5.90
2023-01-27T09:29:01.916Z,6.10
2023-01-27T09:35:12.003Z,6.16
2023-01-27T09:41:32.399Z,6.05
2023-01-27T09:47:45.036Z,6.05
2023-01-27T09:54:00.132Z,6.36
2023-01-27T10:00:05.928Z,6.56
2023-01-27T10:06:22.656Z,6.87
2023-01-27T10:12:42.699Z,6.89
2023-01-27T10:18:37.658Z,6.82
2023-01-27T10:24:47.034Z,7.01
2023-01-27T10:30:38.575Z,7.09
2023-01-27T10:36:30.283Z,7.14
2023-01-27T10:42:28.403Z,7.33
2023-01-27T10:48:50.373Z,7.51
2023-01-27T10:55:38.307Z,7.51
2023-01-27T11:02:07.088Z,7.38
2023-01-27T11:08:05.018Z,7.79
2023-01-27T11:14:04.587Z,7.70
2023-01-27T11:20:12.802Z,7.62
2023-01-27T11:26:30.943Z,7.79
2023-01-27T11:40:00.730Z,7.71
2023-01-27T11:46:20.488Z,8.03
2023-01-27T11:52:20.141Z,8.01
2023-01-27T11:58:29.273Z,7.70
2023-01-27T12:06:10.289Z,7.64
2023-01-27T12:19:52.319Z,7.66
2023-01-27T12:25:57.617Z,7.62
2023-01-27T12:31:48.476Z,7.37
2023-01-27T12:37:50.948Z,7.43
2023-01-27T12:44:29.274Z,7.48
2023-01-27T12:50:40.117Z,7.72
2023-01-27T13:04:30.606Z,7.90
2023-01-27T13:10:23.833Z,7.66
2023-01-27T13:25:12.263Z,7.59
2023-01-27T13:32:10.698Z,7.90
2023-01-27T13:38:25.010Z,7.65
2023-01-27T13:44:38.986Z,7.85
2023-01-27T13:50:34.657Z,7.82
2023-01-27T13:56:59.080Z,7.69
2023-01-27T14:02:55.196Z,7.84
2023-01-27T14:09:38.232Z,7.84
2023-01-27T14:16:45.718Z,7.78
2023-01-27T14:22:59.810Z,7.65
2023-01-27T14:29:51.937Z,7.76
2023-01-27T14:44:43.712Z,7.62
2023-01-27T14:59:57.079Z,7.76
2023-01-27T15:06:45.889Z,7.70
2023-01-27T15:13:21.612Z,7.80
2023-01-27T15:26:27.576Z,7.91
2023-01-27T15:32:17.661Z,7.59
2023-01-27T15:38:11.111Z,7.62
2023-01-27T15:44:38.275Z,7.52
2023-01-27T15:50:32.078Z,7.52
2023-01-27T15:56:45.025Z,7.60
2023-01-27T16:02:37.795Z,7.21
2023-01-27T16:08:33.534Z,7.28
2023-01-27T16:14:23.539Z,7.26
2023-01-27T16:20:34.206Z,6.93
2023-01-27T16:27:02.888Z,6.85
2023-01-27T16:33:20.808Z,6.67
2023-01-27T16:46:35.016Z,6.72
2023-01-27T16:52:42.156Z,6.61
2023-01-27T16:58:45.587Z,6.45
2023-01-27T17:04:36.915Z,6.58
2023-01-27T17:10:34.913Z,6.31
2023-01-27T17:16:29.004Z,6.17
2023-01-27T17:22:32.525Z,6.17
2023-01-27T17:28:30.896Z,6.13
2023-01-27T17:34:22.056Z,5.96
2023-01-27T17:40:18.148Z,5.84
2023-01-27T17:46:05.389Z,5.76
2023-01-27T17:51:58.273Z,5.85
2023-01-27T17:57:53.304Z,5.92
2023-01-27T18:04:06.223Z,5.96
2023-01-27T18:09:55.269Z,5.63
2023-01-27T18:15:42.728Z,5.72
2023-01-27T18:21:33.598Z,5.50
2023-01-27T18:27:26.016Z,5.55
2023-01-27T18:33:17.086Z,5.36
2023-01-27T18:39:35.808Z,5.14
2023-01-27T18:45:23.059Z,5.18
2023-01-27T18:51:29.446Z,5.19
2023-01-27T18:57:18.541Z,5.18
2023-01-27T19:03:12.103Z,5.00
2023-01-27T19:08:58.888Z,4.70
2023-01-27T19:14:47.990Z,4.93
2023-01-27T19:20:45.723Z,5.06
2023-01-27T19:26:44.140Z,4.88
2023-01-27T19:32:31.505Z,5.02
2023-01-27T19:38:34.231Z,5.10
2023-01-27T19:44:42.056Z,4.98
2023-01-27T19:57:34.026Z,4.95
2023-01-27T20:03:23.254Z,5.01
2023-01-27T20:09:50.904Z,4.85
2023-01-27T20:22:30.634Z,4.62
2023-01-27T20:28:31.292Z,4.58
2023-01-27T20:34:19.017Z,4.63
2023-01-27T20:41:10.054Z,4.85
2023-01-27T20:48:00.388Z,4.51
2023-01-27T20:54:00.618Z,4.68
2023-01-27T21:00:07.487Z,4.51
2023-01-27T21:05:56.869Z,4.37
2023-01-27T21:11:46.259Z,4.60
2023-01-27T21:17:42.791Z,4.43
2023-01-27T21:23:45.777Z,4.14
2023-01-27T21:29:37.633Z,4.30
2023-01-27T21:41:49.709Z,4.31
2023-01-27T21:47:39.378Z,4.56
2023-01-27T21:53:33.395Z,4.50
2023-01-27T21:59:21.107Z,4.45
2023-01-27T22:06:25.353Z,4.20
2023-01-27T22:19:55.996Z,3.53
2023-01-27T22:25:51.135Z,3.60
2023-01-27T22:31:40.252Z,3.62
2023-01-27T22:37:28.211Z,3.72
2023-01-27T22:43:15.327Z,3.72
2023-01-27T22:49:02.164Z,3.88
2023-01-27T22:54:50.321Z,4.13
2023-01-27T23:01:20.885Z,4.37
2023-01-27T23:07:07.887Z,4.61
2023-01-27T23:12:54.696Z,4.71
2023-01-27T23:18:43.364Z,4.84
2023-01-27T23:24:40.403Z,4.81
2023-01-27T23:31:18.439Z,4.84
2023-01-27T23:37:11.464Z,4.71
2023-01-27T23:42:58.776Z,4.69
2023-01-27T23:48:53.254Z,4.75
2023-01-27T23:55:08.100Z,4.80
